createdAt,value
2022-08-02T00:01:06.298Z,67.00
2022-08-02T00:03:34.795Z,68.00
2022-08-02T00:06:04.183Z,68.50
2022-08-02T00:08:33.445Z,68.80
2022-08-02T00:11:02.006Z,68.70
2022-08-02T00:13:35.853Z,68.30
2022-08-02T00:16:05.094Z,69.70
2022-08-02T00:18:33.628Z,69.90
2022-08-02T00:21:02.128Z,69.60
2022-08-02T00:23:32.533Z,69.00
2022-08-02T00:26:21.036Z,69.00
2022-08-02T00:28:51.132Z,68.90
2022-08-02T00:31:19.628Z,68.60
2022-08-02T00:34:26.255Z,68.00
2022-08-02T00:36:36.924Z,67.70
2022-08-02T00:39:05.652Z,67.60
2022-08-02T00:41:55.578Z,67.40
2022-08-02T00:44:26.086Z,67.20
2022-08-02T00:46:54.592Z,67.70
2022-08-02T00:49:23.280Z,68.00
2022-08-02T00:51:53.289Z,68.30
2022-08-02T00:54:23.309Z,68.90
2022-08-02T00:56:51.857Z,69.20
2022-08-02T00:59:20.347Z,69.70
2022-08-02T01:01:56.914Z,69.80
2022-08-02T01:04:31.283Z,70.00
2022-08-02T01:07:01.748Z,69.60
2022-08-02T01:09:30.238Z,69.30
2022-08-02T01:11:59.052Z,67.70
2022-08-02T01:14:31.919Z,67.30
2022-08-02T01:17:09.932Z,66.80
2022-08-02T01:19:52.670Z,66.60
2022-08-02T01:23:03.232Z,66.80
2022-08-02T01:25:58.310Z,66.80
2022-08-02T01:28:38.951Z,67.00
2022-08-02T01:31:17.926Z,66.90
2022-08-02T01:33:54.557Z,66.70
2022-08-02T01:36:27.477Z,66.60
2022-08-02T01:38:57.810Z,66.40
2022-08-02T01:41:29.755Z,66.30
2022-08-02T01:44:02.400Z,66.70
2022-08-02T01:46:35.857Z,66.60
2022-08-02T01:49:11.014Z,66.50
2022-08-02T01:52:00.122Z,66.10
2022-08-02T01:54:33.588Z,66.00
2022-08-02T01:57:05.152Z,66.00
2022-08-02T01:59:37.273Z,66.20
2022-08-02T02:02:10.334Z,66.30
2022-08-02T02:04:40.302Z,66.30
2022-08-02T02:07:10.441Z,66.20
2022-08-02T02:09:49.258Z,66.00
2022-08-02T02:12:20.873Z,65.50
2022-08-02T02:14:52.312Z,64.90
2022-08-02T02:17:50.660Z,64.30
2022-08-02T02:20:16.541Z,64.30
2022-08-02T02:22:45.916Z,64.30
2022-08-02T02:25:36.098Z,64.20
2022-08-02T02:28:16.411Z,64.20
2022-08-02T02:30:53.427Z,64.80
2022-08-02T02:33:29.058Z,65.30
2022-08-02T02:36:01.721Z,65.10
2022-08-02T02:38:33.492Z,65.30
2022-08-02T02:41:05.372Z,65.00
2022-08-02T02:43:39.304Z,64.60
2022-08-02T02:46:11.931Z,64.30
2022-08-02T02:48:42.148Z,64.00
2022-08-02T02:51:14.109Z,62.50
2022-08-02T02:54:29.791Z,62.50
2022-08-02T02:56:36.992Z,63.40
2022-08-02T02:59:05.936Z,63.90
2022-08-02T03:01:56.685Z,64.40
2022-08-02T03:04:55.957Z,64.80
2022-08-02T03:07:18.162Z,64.90
2022-08-02T03:09:47.982Z,64.80
2022-08-02T03:12:30.853Z,64.90
2022-08-02T03:15:02.464Z,65.00
2022-08-02T03:17:42.833Z,65.00
2022-08-02T03:20:16.013Z,65.00
2022-08-02T03:22:48.457Z,65.20
2022-08-02T03:25:19.204Z,65.40
2022-08-02T03:27:48.148Z,65.60
2022-08-02T03:30:16.843Z,65.50
2022-08-02T03:32:49.508Z,64.20
2022-08-02T03:35:24.208Z,62.40
2022-08-02T03:37:56.987Z,62.50
2022-08-02T03:40:26.635Z,62.70
2022-08-02T03:42:56.024Z,63.40
2022-08-02T03:45:26.897Z,63.60
2022-08-02T03:47:58.749Z,63.70
2022-08-02T03:50:29.519Z,63.80
2022-08-02T03:52:59.332Z,64.50
2022-08-02T03:55:27.957Z,65.00
2022-08-02T03:57:56.551Z,65.70
2022-08-02T04:00:25.448Z,66.30
2022-08-02T04:02:54.499Z,65.90
2022-08-02T04:05:25.223Z,65.40
2022-08-02T04:08:34.975Z,64.80
2022-08-02T04:10:59.627Z,63.80
2022-08-02T04:13:35.928Z,64.20
2022-08-02T04:16:11.780Z,64.10
2022-08-02T04:18:47.674Z,64.30
2022-08-02T04:21:21.921Z,64.00
2022-08-02T04:23:52.917Z,63.20
2022-08-02T04:26:28.308Z,61.70
2022-08-02T04:28:58.864Z,61.10
2022-08-02T04:31:28.044Z,61.20
2022-08-02T04:33:56.980Z,61.50
2022-08-02T04:36:31.546Z,61.80
2022-08-02T04:39:00.698Z,61.60
2022-08-02T04:41:43.669Z,61.00
2022-08-02T04:44:13.256Z,61.10
2022-08-02T04:46:43.812Z,60.80
2022-08-02T04:49:12.670Z,60.10
2022-08-02T04:51:44.877Z,59.80
2022-08-02T04:54:14.033Z,58.90
2022-08-02T04:56:42.926Z,59.10
2022-08-02T04:59:12.468Z,59.40
2022-08-02T05:01:42.530Z,59.50
2022-08-02T05:04:11.292Z,59.50
2022-08-02T05:06:41.175Z,59.50
2022-08-02T05:09:09.806Z,59.50
2022-08-02T05:11:38.339Z,59.50
2022-08-02T05:14:07.437Z,59.60
2022-08-02T05:16:35.890Z,59.30
2022-08-02T05:19:04.483Z,59.20
2022-08-02T05:21:33.100Z,58.80
2022-08-02T05:24:03.092Z,59.10
2022-08-02T05:26:31.580Z,59.50
2022-08-02T05:29:00.045Z,60.00
2022-08-02T05:31:28.521Z,60.00
2022-08-02T05:33:56.978Z,60.10
2022-08-02T05:36:25.470Z,60.00
2022-08-02T05:38:59.547Z,60.10
2022-08-02T05:41:29.990Z,60.00
2022-08-02T05:43:58.602Z,59.80
2022-08-02T05:46:27.115Z,59.70
2022-08-02T05:48:55.607Z,59.60
2022-08-02T05:51:30.536Z,59.70
2022-08-02T05:54:13.958Z,59.60
2022-08-02T05:56:52.769Z,58.40
2022-08-02T05:59:33.842Z,57.90
2022-08-02T06:02:14.434Z,57.30
2022-08-02T06:05:00.621Z,56.90
2022-08-02T06:07:31.082Z,57.50
2022-08-02T06:10:00.722Z,57.40
2022-08-02T06:12:34.031Z,57.50
2022-08-02T06:15:04.894Z,56.80
2022-08-02T06:17:35.287Z,56.10
2022-08-02T06:20:13.636Z,55.90
2022-08-02T06:22:44.954Z,55.40
2022-08-02T06:25:50.227Z,55.10
2022-08-02T06:28:10.161Z,55.10
2022-08-02T06:30:41.043Z,53.60
2022-08-02T06:33:09.536Z,53.10
2022-08-02T06:35:47.033Z,53.30
2022-08-02T06:38:23.325Z,53.20
2022-08-02T06:41:04.321Z,52.40
2022-08-02T06:43:46.248Z,52.40
2022-08-02T06:46:57.422Z,52.10
2022-08-02T06:49:04.381Z,51.90
2022-08-02T06:51:34.210Z,50.40
2022-08-02T06:54:02.838Z,50.40
2022-08-02T06:56:31.525Z,50.00
2022-08-02T06:59:05.846Z,49.50
2022-08-02T07:01:38.542Z,49.90
2022-08-02T07:04:07.905Z,48.70
2022-08-02T07:06:36.886Z,47.80
2022-08-02T07:09:22.043Z,45.90
2022-08-02T07:11:50.744Z,45.50
2022-08-02T07:14:20.597Z,45.20
2022-08-02T07:16:49.213Z,45.90
2022-08-02T07:19:17.673Z,44.90
2022-08-02T07:21:56.980Z,45.40
2022-08-02T07:24:27.958Z,43.90
2022-08-02T07:27:10.428Z,43.40
2022-08-02T07:29:46.776Z,42.00
2022-08-02T07:32:17.060Z,39.00
2022-08-02T07:34:50.419Z,39.80
2022-08-02T07:37:35.992Z,39.50
2022-08-02T07:40:13.977Z,39.90
2022-08-02T07:42:44.246Z,38.90
2022-08-02T07:45:15.592Z,37.10
2022-08-02T07:47:45.705Z,36.60
2022-08-02T07:50:18.072Z,36.40
2022-08-02T07:52:47.432Z,37.80
2022-08-02T07:55:18.062Z,36.40
2022-08-02T07:57:47.529Z,36.10
2022-08-02T08:00:18.779Z,38.00
2022-08-02T08:02:47.842Z,36.00
2022-08-02T08:05:17.004Z,35.60
2022-08-02T08:07:45.602Z,35.90
2022-08-02T08:10:14.193Z,34.30
2022-08-02T08:12:42.867Z,33.80
2022-08-02T08:15:12.249Z,33.70
2022-08-02T08:17:42.161Z,33.80
2022-08-02T08:20:15.621Z,35.50
2022-08-02T08:22:44.515Z,32.70
2022-08-02T08:25:13.105Z,32.80
2022-08-02T08:27:50.282Z,31.60
2022-08-02T08:30:19.198Z,31.70
2022-08-02T08:32:49.176Z,32.20
2022-08-02T08:49:00.709Z,28.10
2022-08-02T08:51:37.151Z,25.30
2022-08-02T08:54:08.392Z,24.70
2022-08-02T08:56:37.943Z,23.80
2022-08-02T08:59:07.059Z,24.30
2022-08-02T09:01:50.059Z,24.10
2022-08-02T09:04:21.019Z,23.40
2022-08-02T09:06:49.956Z,22.00
2022-08-02T09:09:18.657Z,22.20
2022-08-02T09:11:47.238Z,22.50
2022-08-02T09:14:29.398Z,22.50
2022-08-02T09:17:12.316Z,21.60
2022-08-02T09:19:46.062Z,22.60
2022-08-02T09:22:16.472Z,21.90
2022-08-02T09:24:59.279Z,19.90
2022-08-02T09:28:15.276Z,21.50
2022-08-02T09:30:45.801Z,22.20
2022-08-02T09:33:18.092Z,20.60
2022-08-02T09:36:06.769Z,20.30
2022-08-02T09:38:38.073Z,19.50
2022-08-02T09:41:20.600Z,20.70
2022-08-02T09:43:52.406Z,21.00
2022-08-02T09:46:37.719Z,21.50
2022-08-02T09:49:13.306Z,21.80
2022-08-02T09:51:53.138Z,21.70
2022-08-02T09:54:25.289Z,23.20
2022-08-02T09:56:58.297Z,22.70
2022-08-02T09:59:29.450Z,22.20
2022-08-02T10:02:02.373Z,20.00
2022-08-02T10:04:52.077Z,20.00
2022-08-02T10:07:24.084Z,19.90
2022-08-02T10:09:53.372Z,19.60
2022-08-02T10:12:23.173Z,18.10
2022-08-02T10:14:52.955Z,18.50
2022-08-02T10:17:22.584Z,18.30
2022-08-02T10:20:02.491Z,17.00
2022-08-02T10:22:36.125Z,15.00
2022-08-02T10:25:06.615Z,17.00
2022-08-02T10:28:03.880Z,16.60
2022-08-02T10:30:30.225Z,16.30
2022-08-02T10:33:02.364Z,14.40
2022-08-02T10:35:37.537Z,14.10
2022-08-02T10:38:12.067Z,14.70
2022-08-02T10:40:48.788Z,15.30
2022-08-02T10:43:46.235Z,15.20
2022-08-02T10:46:34.709Z,15.40
2022-08-02T10:52:09.836Z,16.80
2022-08-02T10:54:42.731Z,15.70
2022-08-02T10:57:21.564Z,16.30
2022-08-02T10:59:51.975Z,15.50
2022-08-02T11:02:43.395Z,16.30
2022-08-02T11:05:15.821Z,16.60
2022-08-02T11:07:49.312Z,15.30
2022-08-02T11:10:47.797Z,14.60
2022-08-02T11:13:19.680Z,13.60
2022-08-02T11:16:10.716Z,13.60
2022-08-02T11:19:07.151Z,14.50
2022-08-02T11:21:37.501Z,11.10
2022-08-02T11:24:27.487Z,11.60
2022-08-02T11:26:58.765Z,12.60
2022-08-02T11:29:40.753Z,12.10
2022-08-02T11:32:16.307Z,12.10
2022-08-02T11:34:47.623Z,13.30
2022-08-02T11:37:29.645Z,12.70
2022-08-02T11:39:58.113Z,13.50
2022-08-02T11:42:35.089Z,13.70
2022-08-02T11:45:04.708Z,13.00
2022-08-02T11:47:33.555Z,12.50
2022-08-02T11:50:10.639Z,12.20
2022-08-02T11:52:39.984Z,12.40
2022-08-02T11:55:10.489Z,12.30
2022-08-02T11:58:04.161Z,11.40
2022-08-02T12:00:31.146Z,12.00
2022-08-02T12:02:59.772Z,11.40
2022-08-02T12:06:03.071Z,11.40
2022-08-02T12:08:19.041Z,10.50
2022-08-02T12:10:50.858Z,9.70
2022-08-02T12:13:20.934Z,10.40
2022-08-02T12:15:49.869Z,10.30
2022-08-02T12:18:38.327Z,9.50
2022-08-02T12:21:23.652Z,9.70
2022-08-02T12:23:59.749Z,8.90
2022-08-02T12:26:30.277Z,11.00
2022-08-02T12:29:01.663Z,9.60
2022-08-02T12:31:57.198Z,9.00
2022-08-02T12:34:30.068Z,9.00
2022-08-02T12:37:08.248Z,9.40
2022-08-02T12:39:43.143Z,9.20
2022-08-02T12:42:14.987Z,9.70
2022-08-02T12:44:55.384Z,8.70
2022-08-02T12:47:23.931Z,8.50
2022-08-02T12:50:14.348Z,8.80
2022-08-02T12:52:42.836Z,9.50
2022-08-02T12:55:25.973Z,9.30
2022-08-02T12:58:14.543Z,9.00
2022-08-02T13:00:55.662Z,9.20
2022-08-02T13:04:07.779Z,8.40
2022-08-02T13:09:12.565Z,8.10
2022-08-02T13:11:42.949Z,7.20
2022-08-02T13:14:13.324Z,8.10
2022-08-02T13:16:45.951Z,8.50
2022-08-02T13:19:16.195Z,7.80
2022-08-02T13:22:01.410Z,7.70
2022-08-02T13:24:40.570Z,8.10
2022-08-02T13:27:21.765Z,9.40
2022-08-02T13:29:50.425Z,7.20
2022-08-02T13:32:21.260Z,7.80
2022-08-02T13:34:50.109Z,6.80
2022-08-02T13:37:19.233Z,6.70
2022-08-02T13:40:11.784Z,6.60
2022-08-02T13:42:37.020Z,7.70
2022-08-02T13:45:12.462Z,6.90
2022-08-02T13:48:04.609Z,8.30
2022-08-02T13:50:34.099Z,6.60
2022-08-02T13:53:02.797Z,6.10
2022-08-02T13:55:31.392Z,6.70
2022-08-02T13:58:00.227Z,6.60
2022-08-02T14:00:35.428Z,7.80
2022-08-02T14:03:08.351Z,8.20
2022-08-02T14:05:48.554Z,7.20
2022-08-02T14:08:19.380Z,8.10
2022-08-02T14:10:48.717Z,5.90
2022-08-02T14:13:17.838Z,6.30
2022-08-02T14:15:46.710Z,6.40
2022-08-02T14:18:16.874Z,6.40
2022-08-02T14:20:46.203Z,6.80
2022-08-02T14:23:15.021Z,6.30
2022-08-02T14:25:44.161Z,6.30
2022-08-02T14:28:12.669Z,6.00
2022-08-02T14:30:41.439Z,6.00
2022-08-02T14:33:10.553Z,5.50
2022-08-02T14:35:40.536Z,5.80
2022-08-02T14:38:09.428Z,5.30
2022-08-02T14:40:38.116Z,4.70
2022-08-02T14:43:06.736Z,4.30
2022-08-02T14:45:40.870Z,4.30
2022-08-02T14:48:12.460Z,4.50
2022-08-02T14:50:42.672Z,4.20
2022-08-02T14:53:12.557Z,4.00
2022-08-02T14:55:43.494Z,4.70
2022-08-02T14:58:12.751Z,4.60
2022-08-02T15:00:43.855Z,6.00
2022-08-02T15:03:13.563Z,5.80
2022-08-02T15:05:43.497Z,6.30
2022-08-02T15:08:11.976Z,7.20
2022-08-02T15:10:46.739Z,7.40
2022-08-02T15:13:15.436Z,7.10
2022-08-02T15:15:43.983Z,7.00
2022-08-02T15:18:14.554Z,6.70
2022-08-02T15:20:56.232Z,6.50
2022-08-02T15:23:37.519Z,6.30
2022-08-02T15:26:07.289Z,6.90
2022-08-02T15:28:37.077Z,5.90
2022-08-02T15:31:05.649Z,6.30
2022-08-02T15:33:34.286Z,6.80
2022-08-02T15:36:05.478Z,7.10
2022-08-02T15:38:34.246Z,5.90
2022-08-02T15:41:03.298Z,6.40
2022-08-02T15:43:32.395Z,5.90
2022-08-02T15:46:01.325Z,6.10
2022-08-02T15:48:29.770Z,6.80
2022-08-02T15:50:58.532Z,6.90
2022-08-02T15:53:28.501Z,7.60
2022-08-02T15:56:04.315Z,7.00
2022-08-02T15:58:33.728Z,7.10
2022-08-02T16:01:11.095Z,6.60
2022-08-02T16:03:40.202Z,6.00
2022-08-02T16:06:08.659Z,4.70
2022-08-02T16:08:38.519Z,3.60
2022-08-02T16:11:13.754Z,3.80
2022-08-02T16:13:53.565Z,4.10
2022-08-02T16:16:24.297Z,4.20
2022-08-02T16:18:53.230Z,4.00
2022-08-02T16:21:22.858Z,4.30
2022-08-02T16:23:58.804Z,3.90
2022-08-02T16:26:32.181Z,3.00
2022-08-02T16:29:02.334Z,4.80
2022-08-02T16:31:31.062Z,4.40
2022-08-02T16:34:00.054Z,4.30
2022-08-02T16:36:29.194Z,3.90
2022-08-02T16:38:59.373Z,5.60
2022-08-02T16:41:50.489Z,3.90
2022-08-02T16:44:17.293Z,4.80
2022-08-02T16:46:46.217Z,5.10
2022-08-02T16:52:09.529Z,6.00
2022-08-02T16:54:39.554Z,6.40
2022-08-02T16:57:07.998Z,7.30
2022-08-02T16:59:42.752Z,8.40
2022-08-02T17:02:17.939Z,8.60
2022-08-02T17:04:48.503Z,8.20
2022-08-02T17:08:08.628Z,9.90
2022-08-02T17:10:09.781Z,10.20
2022-08-02T17:12:39.345Z,12.40
2022-08-02T17:16:01.027Z,12.90
2022-08-02T17:18:00.325Z,12.60
2022-08-02T17:20:29.336Z,13.10
2022-08-02T17:23:00.571Z,13.70
2022-08-02T17:25:32.071Z,14.60
2022-08-02T17:28:01.099Z,14.80
2022-08-02T17:30:29.856Z,14.60
2022-08-02T17:32:59.601Z,15.10
2022-08-02T17:35:43.836Z,15.90
2022-08-02T17:38:18.231Z,16.10
2022-08-02T17:40:57.052Z,17.30
2022-08-02T17:43:29.203Z,17.10
2022-08-02T17:45:59.812Z,17.50
2022-08-02T17:48:54.893Z,17.60
2022-08-02T17:52:14.668Z,18.00
2022-08-02T17:54:13.739Z,18.50
2022-08-02T17:56:43.579Z,19.20
2022-08-02T17:59:20.596Z,20.00
2022-08-02T18:01:52.900Z,21.30
2022-08-02T18:04:27.731Z,21.80
2022-08-02T18:07:03.837Z,22.80
2022-08-02T18:09:34.685Z,23.00
2022-08-02T18:12:04.831Z,23.30
2022-08-02T18:14:33.230Z,23.60
2022-08-02T18:17:04.732Z,24.00
2022-08-02T18:19:53.983Z,24.40
2022-08-02T18:22:24.910Z,24.70
2022-08-02T18:24:54.986Z,25.10
2022-08-02T18:27:24.892Z,24.70
2022-08-02T18:30:00.305Z,25.90
2022-08-02T18:33:53.965Z,27.20
2022-08-02T18:35:23.548Z,27.20
2022-08-02T18:37:57.231Z,28.20
2022-08-02T18:40:29.504Z,28.40
2022-08-02T18:42:59.362Z,28.50
2022-08-02T18:46:01.599Z,29.40
2022-08-02T18:48:20.408Z,28.80
2022-08-02T18:50:50.667Z,29.50
2022-08-02T18:53:28.002Z,30.30
2022-08-02T18:56:08.344Z,30.40
2022-08-02T18:58:38.190Z,31.00
2022-08-02T19:01:15.012Z,31.20
2022-08-02T19:03:55.159Z,32.30
2022-08-02T19:06:27.647Z,32.60
2022-08-02T19:09:10.376Z,33.20
2022-08-02T19:11:47.960Z,33.40
2022-08-02T19:14:24.458Z,33.90
2022-08-02T19:16:57.993Z,34.20
2022-08-02T19:19:28.926Z,34.50
2022-08-02T19:22:18.872Z,34.80
2022-08-02T19:24:51.889Z,35.70
2022-08-02T19:27:26.064Z,36.20
2022-08-02T19:30:03.261Z,36.00
2022-08-02T19:32:42.563Z,36.30
2022-08-02T19:35:30.804Z,36.80
2022-08-02T19:38:11.477Z,37.50
2022-08-02T19:40:42.285Z,38.20
2022-08-02T19:44:25.847Z,38.50
2022-08-02T19:46:02.700Z,38.40
2022-08-02T19:48:31.226Z,38.40
2022-08-02T19:51:01.501Z,39.00
2022-08-02T19:53:47.502Z,38.90
2022-08-02T19:56:20.406Z,39.30
2022-08-02T19:58:51.533Z,39.70
2022-08-02T20:01:36.609Z,40.10
2022-08-02T20:04:07.299Z,40.30
2022-08-02T20:06:45.505Z,40.40
2022-08-02T20:09:16.989Z,41.10
2022-08-02T20:11:54.005Z,41.30
2022-08-02T20:14:26.979Z,41.60
2022-08-02T20:16:58.410Z,41.70
2022-08-02T20:19:28.835Z,41.80
2022-08-02T20:22:00.638Z,41.90
2022-08-02T20:24:30.149Z,42.10
2022-08-02T20:26:59.768Z,42.10
2022-08-02T20:29:45.233Z,42.40
2022-08-02T20:32:23.692Z,42.60
2022-08-02T20:34:53.337Z,42.90
2022-08-02T20:37:56.006Z,43.00
2022-08-02T20:40:16.764Z,43.10
2022-08-02T20:42:48.105Z,43.10
2022-08-02T20:45:17.165Z,43.30
2022-08-02T20:47:50.847Z,43.80
2022-08-02T20:50:38.128Z,43.80
2022-08-02T20:53:08.578Z,44.00
2022-08-02T20:55:55.030Z,44.50
2022-08-02T20:58:26.852Z,44.80
2022-08-02T21:00:59.206Z,45.00
2022-08-02T21:03:32.228Z,45.20
2022-08-02T21:06:09.472Z,45.50
2022-08-02T21:08:38.344Z,45.50
2022-08-02T21:11:09.622Z,45.40
2022-08-02T21:13:47.198Z,45.60
2022-08-02T21:16:29.684Z,46.10
2022-08-02T21:19:00.528Z,46.30
2022-08-02T21:21:29.816Z,46.20
2022-08-02T21:24:01.442Z,46.20
2022-08-02T21:26:31.278Z,46.40
2022-08-02T21:31:51.200Z,46.50
2022-08-02T21:34:22.531Z,46.70
2022-08-02T21:36:55.982Z,47.00
2022-08-02T21:39:25.123Z,47.20
2022-08-02T21:41:53.609Z,47.70
2022-08-02T21:44:23.894Z,48.90
2022-08-02T21:46:54.871Z,49.10
2022-08-02T21:50:09.399Z,49.60
2022-08-02T21:52:16.512Z,50.50
2022-08-02T21:54:45.921Z,50.00
2022-08-02T21:57:16.847Z,49.80
2022-08-02T21:59:47.042Z,48.90
2022-08-02T22:02:18.003Z,49.40
2022-08-02T22:04:48.535Z,49.60
2022-08-02T22:07:23.877Z,49.50
2022-08-02T22:12:43.273Z,48.60
2022-08-02T22:15:13.411Z,48.50
2022-08-02T22:17:53.293Z,48.30
2022-08-02T22:20:29.977Z,48.20
2022-08-02T22:22:58.418Z,48.00
2022-08-02T22:25:37.368Z,47.80
2022-08-02T22:28:38.655Z,47.80
2022-08-02T22:30:58.243Z,48.00
2022-08-02T22:33:47.308Z,48.30
2022-08-02T22:36:31.888Z,48.30
2022-08-02T22:39:02.368Z,48.40
2022-08-02T22:42:01.295Z,48.30
2022-08-02T22:44:20.585Z,48.60
2022-08-02T22:46:50.001Z,48.90
2022-08-02T22:49:37.025Z,49.10
2022-08-02T22:52:07.770Z,49.20
2022-08-02T22:54:36.354Z,49.10
2022-08-02T22:57:06.549Z,49.10
2022-08-02T22:58:35.065Z,5.30
2022-08-02T22:59:02.909Z,46.40
2022-08-02T22:59:40.749Z,49.40
2022-08-02T23:02:10.332Z,49.80
2022-08-02T23:04:39.171Z,49.70
2022-08-02T23:07:09.033Z,49.70
2022-08-02T23:09:37.786Z,49.60
2022-08-02T23:12:06.986Z,49.60
2022-08-02T23:14:37.163Z,49.60
2022-08-02T23:17:23.044Z,49.60
2022-08-02T23:19:54.091Z,49.80
2022-08-02T23:22:30.112Z,49.60
2022-08-02T23:25:02.346Z,49.60
2022-08-02T23:27:31.894Z,49.50
2022-08-02T23:30:01.223Z,49.40
2022-08-02T23:32:30.398Z,49.60
2022-08-02T23:34:59.505Z,49.60
2022-08-02T23:37:29.290Z,49.60
2022-08-02T23:40:31.389Z,49.50
2022-08-02T23:43:13.281Z,49.60
2022-08-02T23:45:45.000Z,49.80
2022-08-02T23:48:13.538Z,50.10
2022-08-02T23:50:42.081Z,50.50
2022-08-02T23:53:11.899Z,50.40
2022-08-02T23:55:40.308Z,50.40
2022-08-02T23:58:08.755Z,50.50
